createdAt,value
2023-02-02T00:01:25.560Z,3.70
2023-02-02T00:03:55.861Z,3.70
2023-02-02T00:06:26.510Z,3.60
2023-02-02T00:08:57.708Z,3.60
2023-02-02T00:11:26.419Z,3.60
2023-02-02T00:13:54.461Z,3.60
2023-02-02T00:16:45.304Z,3.60
2023-02-02T00:19:16.112Z,3.60
2023-02-02T00:21:44.686Z,3.60
2023-02-02T00:24:17.978Z,3.60
2023-02-02T00:26:48.029Z,3.60
2023-02-02T00:29:18.661Z,3.60
2023-02-02T00:31:46.850Z,3.60
2023-02-02T00:34:15.885Z,3.60
2023-02-02T00:36:44.707Z,3.60
2023-02-02T00:39:16.822Z,3.60
2023-02-02T00:41:44.802Z,3.60
2023-02-02T00:44:30.579Z,3.60
2023-02-02T00:46:58.593Z,3.60
2023-02-02T00:49:26.500Z,3.60
2023-02-02T00:51:54.422Z,3.60
2023-02-02T00:54:23.740Z,3.60
2023-02-02T00:56:51.631Z,3.60
2023-02-02T00:59:19.562Z,3.60
2023-02-02T01:01:47.735Z,3.60
2023-02-02T01:04:15.728Z,3.60
2023-02-02T01:06:43.651Z,3.70
2023-02-02T01:09:11.566Z,3.60
2023-02-02T01:11:41.151Z,3.70
2023-02-02T01:14:09.179Z,3.70
2023-02-02T01:16:37.130Z,3.90
2023-02-02T01:19:05.474Z,3.60
2023-02-02T01:21:33.751Z,3.70
2023-02-02T01:24:01.691Z,3.70
2023-02-02T01:26:29.635Z,3.70
2023-02-02T01:28:58.966Z,3.70
2023-02-02T01:31:27.111Z,5.20
2023-02-02T01:33:55.126Z,3.70
2023-02-02T01:36:24.711Z,3.70
2023-02-02T01:38:53.202Z,3.60
2023-02-02T01:41:23.448Z,3.80
2023-02-02T01:43:59.525Z,3.50
2023-02-02T01:46:29.733Z,3.70
2023-02-02T01:49:06.991Z,3.60
2023-02-02T01:51:41.178Z,3.70
2023-02-02T01:54:11.999Z,3.60
2023-02-02T01:56:46.652Z,3.60
2023-02-02T01:59:19.109Z,3.60
2023-02-02T02:01:48.820Z,3.20
2023-02-02T02:04:17.216Z,3.60
2023-02-02T02:06:45.490Z,3.60
2023-02-02T02:09:14.138Z,3.60
2023-02-02T02:11:42.188Z,3.60
2023-02-02T02:14:29.867Z,3.60
2023-02-02T02:17:12.136Z,3.60
2023-02-02T02:20:30.772Z,3.60
2023-02-02T02:23:51.992Z,3.60
2023-02-02T02:26:47.776Z,3.90
2023-02-02T02:30:02.699Z,3.60
2023-02-02T02:32:42.067Z,3.60
2023-02-02T02:35:14.995Z,3.60
2023-02-02T02:37:48.423Z,3.60
2023-02-02T02:40:23.679Z,3.60
2023-02-02T02:42:55.849Z,3.50
2023-02-02T02:45:26.552Z,3.50
2023-02-02T02:47:56.427Z,3.50
2023-02-02T02:50:24.397Z,3.50
2023-02-02T02:53:00.719Z,3.60
2023-02-02T02:55:37.558Z,3.50
2023-02-02T02:58:09.673Z,3.50
2023-02-02T03:00:48.605Z,3.50
2023-02-02T03:03:32.178Z,3.50
2023-02-02T03:06:09.372Z,3.50
2023-02-02T03:08:41.580Z,3.50
2023-02-02T03:11:12.110Z,3.50
2023-02-02T03:13:42.204Z,3.50
2023-02-02T03:16:10.962Z,3.50
2023-02-02T03:18:40.700Z,3.50
2023-02-02T03:21:08.598Z,3.50
2023-02-02T03:23:36.616Z,3.50
2023-02-02T03:26:05.110Z,3.50
2023-02-02T03:28:33.691Z,3.40
2023-02-02T03:31:03.080Z,3.40
2023-02-02T03:33:33.187Z,3.40
2023-02-02T03:36:02.484Z,3.40
2023-02-02T03:38:30.511Z,3.40
2023-02-02T03:40:58.439Z,3.80
2023-02-02T03:43:26.657Z,3.40
2023-02-02T03:45:58.455Z,3.40
2023-02-02T03:48:26.795Z,3.40
2023-02-02T03:50:54.788Z,3.40
2023-02-02T03:53:24.691Z,3.40
2023-02-02T03:55:52.661Z,3.40
2023-02-02T03:58:22.376Z,3.40
2023-02-02T04:00:50.483Z,3.30
2023-02-02T04:03:18.811Z,3.30
2023-02-02T04:05:50.611Z,3.30
2023-02-02T04:08:18.539Z,3.20
2023-02-02T04:10:47.805Z,3.20
2023-02-02T04:13:15.780Z,3.20
2023-02-02T04:15:43.789Z,3.30
2023-02-02T04:18:11.687Z,3.20
2023-02-02T04:20:39.654Z,3.20
2023-02-02T04:23:07.583Z,3.10
2023-02-02T04:25:35.563Z,3.10
2023-02-02T04:28:05.079Z,3.10
2023-02-02T04:30:33.066Z,3.10
2023-02-02T04:33:00.997Z,3.10
2023-02-02T04:35:28.939Z,3.00
2023-02-02T04:37:56.853Z,3.00
2023-02-02T04:40:25.295Z,3.00
2023-02-02T04:42:53.210Z,3.10
2023-02-02T04:45:22.727Z,3.00
2023-02-02T04:47:51.463Z,3.00
2023-02-02T04:50:19.432Z,3.00
2023-02-02T04:52:47.377Z,3.00
2023-02-02T04:55:15.465Z,3.00
2023-02-02T04:57:43.588Z,3.10
2023-02-02T05:00:13.838Z,3.10
2023-02-02T05:02:43.578Z,3.10
2023-02-02T05:05:15.054Z,3.10
2023-02-02T05:07:43.077Z,3.10
2023-02-02T05:10:13.144Z,3.10
2023-02-02T05:12:41.052Z,3.20
2023-02-02T05:15:10.144Z,3.20
2023-02-02T05:17:38.066Z,3.20
2023-02-02T05:20:08.255Z,3.20
2023-02-02T05:22:36.319Z,3.20
2023-02-02T05:25:04.293Z,3.20
2023-02-02T05:27:32.387Z,3.20
2023-02-02T05:30:00.327Z,3.20
2023-02-02T05:32:29.826Z,3.20
2023-02-02T05:34:57.946Z,3.20
2023-02-02T05:37:27.259Z,3.20
2023-02-02T05:39:55.186Z,3.20
2023-02-02T05:42:23.214Z,3.20
2023-02-02T05:44:51.163Z,3.20
2023-02-02T05:47:19.077Z,3.20
2023-02-02T05:49:47.035Z,3.20
2023-02-02T05:52:19.008Z,3.20
2023-02-02T05:54:48.338Z,3.20
2023-02-02T05:57:16.372Z,3.20
2023-02-02T05:59:44.320Z,3.20
2023-02-02T06:02:12.388Z,3.20
2023-02-02T06:04:40.441Z,3.20
2023-02-02T06:07:08.464Z,3.20
2023-02-02T06:09:36.396Z,3.20
2023-02-02T06:12:06.396Z,3.10
2023-02-02T06:14:34.329Z,3.10
2023-02-02T06:17:02.220Z,3.20
2023-02-02T06:19:30.172Z,3.10
2023-02-02T06:21:58.082Z,3.20
2023-02-02T06:24:26.343Z,3.10
2023-02-02T06:26:54.349Z,3.10
2023-02-02T06:29:23.873Z,3.10
2023-02-02T06:31:52.162Z,3.10
2023-02-02T06:34:20.292Z,3.10
2023-02-02T06:36:48.694Z,3.10
2023-02-02T06:39:16.743Z,3.10
2023-02-02T06:41:46.576Z,3.10
2023-02-02T06:44:14.829Z,3.10
2023-02-02T06:46:44.322Z,3.10
2023-02-02T06:49:12.263Z,3.10
2023-02-02T06:51:40.192Z,3.10
2023-02-02T06:54:08.113Z,3.90
2023-02-02T06:56:36.127Z,3.10
2023-02-02T06:59:04.128Z,3.10
2023-02-02T07:01:32.502Z,3.10
2023-02-02T07:04:01.825Z,3.10
2023-02-02T07:06:30.571Z,3.10
2023-02-02T07:09:02.646Z,3.20
2023-02-02T07:11:33.734Z,3.20
2023-02-02T07:14:02.713Z,3.10
2023-02-02T07:16:31.092Z,3.20
2023-02-02T07:18:59.042Z,3.20
2023-02-02T07:21:30.144Z,3.20
2023-02-02T07:23:59.021Z,3.20
2023-02-02T07:26:27.726Z,3.20
2023-02-02T07:28:55.870Z,3.20
2023-02-02T07:31:25.980Z,3.20
2023-02-02T07:33:54.940Z,3.20
2023-02-02T07:36:24.955Z,3.30
2023-02-02T07:38:55.611Z,3.30
2023-02-02T07:41:24.494Z,3.30
2023-02-02T07:43:52.824Z,3.30
2023-02-02T07:46:21.500Z,3.30
2023-02-02T07:48:49.951Z,3.30
2023-02-02T07:51:19.434Z,3.40
2023-02-02T07:53:49.023Z,3.40
2023-02-02T07:56:20.264Z,3.40
2023-02-02T07:58:48.747Z,3.40
2023-02-02T08:01:17.762Z,3.50
2023-02-02T08:03:46.058Z,3.50
2023-02-02T08:06:16.927Z,3.50
2023-02-02T08:08:44.947Z,3.50
2023-02-02T08:11:14.724Z,3.60
2023-02-02T08:13:44.585Z,3.60
2023-02-02T08:16:13.583Z,3.60
2023-02-02T08:18:42.340Z,3.60
2023-02-02T08:21:10.609Z,3.60
2023-02-02T08:23:39.394Z,3.60
2023-02-02T08:26:09.466Z,3.60
2023-02-02T08:28:37.935Z,3.60
2023-02-02T08:31:09.061Z,3.60
2023-02-02T08:33:38.554Z,3.60
2023-02-02T08:36:10.699Z,3.60
2023-02-02T08:38:38.606Z,3.70
2023-02-02T08:41:07.068Z,3.70
2023-02-02T08:43:35.711Z,3.70
2023-02-02T08:46:05.626Z,3.70
2023-02-02T08:48:35.804Z,3.70
2023-02-02T08:51:05.084Z,3.70
2023-02-02T08:53:33.638Z,3.70
2023-02-02T08:56:02.705Z,3.70
2023-02-02T08:58:31.714Z,3.80
2023-02-02T09:01:06.006Z,3.80
2023-02-02T09:03:35.941Z,3.80
2023-02-02T09:06:08.367Z,3.80
2023-02-02T09:08:36.621Z,3.80
2023-02-02T09:11:06.692Z,3.80
2023-02-02T09:13:34.916Z,3.80
2023-02-02T09:16:03.578Z,3.90
2023-02-02T09:18:32.050Z,3.90
2023-02-02T09:21:03.192Z,3.90
2023-02-02T09:23:32.178Z,4.00
2023-02-02T09:26:10.553Z,4.00
2023-02-02T09:28:39.545Z,4.00
2023-02-02T09:31:08.107Z,4.00
2023-02-02T09:33:36.399Z,4.00
2023-02-02T09:36:10.929Z,4.00
2023-02-02T09:38:39.711Z,4.10
2023-02-02T09:41:47.195Z,4.10
2023-02-02T09:44:22.712Z,4.10
2023-02-02T09:47:01.988Z,4.10
2023-02-02T09:49:36.569Z,4.10
2023-02-02T09:52:13.439Z,4.10
2023-02-02T09:54:45.729Z,4.10
2023-02-02T09:57:18.542Z,4.20
2023-02-02T09:59:48.738Z,4.10
2023-02-02T10:02:19.942Z,4.10
2023-02-02T10:04:52.464Z,4.20
2023-02-02T10:07:28.327Z,4.30
2023-02-02T10:10:00.934Z,4.40
2023-02-02T10:12:36.075Z,4.50
2023-02-02T10:15:13.459Z,4.60
2023-02-02T10:17:48.160Z,4.60
2023-02-02T10:20:24.154Z,4.60
2023-02-02T10:22:58.368Z,4.60
2023-02-02T10:25:29.913Z,4.60
2023-02-02T10:28:04.682Z,4.70
2023-02-02T10:30:42.613Z,4.80
2023-02-02T10:33:20.898Z,4.80
2023-02-02T10:35:54.858Z,4.80
2023-02-02T10:38:32.949Z,4.90
2023-02-02T10:41:07.898Z,4.80
2023-02-02T10:43:54.505Z,5.00
2023-02-02T10:46:25.738Z,5.20
2023-02-02T10:49:09.720Z,5.30
2023-02-02T10:51:38.025Z,5.20
2023-02-02T10:54:21.317Z,5.10
2023-02-02T10:56:55.017Z,5.10
2023-02-02T10:59:28.350Z,5.90
2023-02-02T11:01:56.335Z,5.10
2023-02-02T11:04:41.960Z,5.20
2023-02-02T11:07:13.200Z,5.30
2023-02-02T11:09:43.921Z,5.30
2023-02-02T11:12:18.942Z,5.20
2023-02-02T11:14:50.769Z,5.20
2023-02-02T11:17:21.431Z,5.20
2023-02-02T11:19:50.951Z,5.10
2023-02-02T11:22:28.203Z,5.10
2023-02-02T11:25:00.655Z,5.10
2023-02-02T11:27:32.508Z,5.00
2023-02-02T11:30:08.806Z,5.00
2023-02-02T11:32:37.856Z,4.90
2023-02-02T11:35:17.914Z,4.90
2023-02-02T11:38:02.250Z,4.90
2023-02-02T11:40:37.851Z,4.80
2023-02-02T11:43:15.336Z,4.70
2023-02-02T11:45:45.278Z,4.60
2023-02-02T11:48:18.585Z,4.60
2023-02-02T11:50:48.802Z,4.50
2023-02-02T11:53:24.607Z,4.40
2023-02-02T11:55:55.983Z,4.40
2023-02-02T11:58:27.621Z,4.40
2023-02-02T12:00:59.341Z,4.30
2023-02-02T12:03:31.395Z,4.20
2023-02-02T12:06:02.009Z,4.20
2023-02-02T12:08:31.257Z,4.20
2023-02-02T12:11:03.106Z,4.10
2023-02-02T12:13:47.850Z,4.10
2023-02-02T12:16:34.832Z,4.10
2023-02-02T12:19:17.239Z,4.00
2023-02-02T12:21:54.849Z,4.00
2023-02-02T12:24:31.391Z,4.00
2023-02-02T12:27:16.088Z,4.10
2023-02-02T12:30:03.925Z,4.10
2023-02-02T12:32:46.337Z,4.10
2023-02-02T12:35:49.315Z,4.10
2023-02-02T12:38:26.453Z,4.20
2023-02-02T12:41:14.992Z,4.20
2023-02-02T12:43:47.252Z,4.20
2023-02-02T12:46:30.456Z,4.10
2023-02-02T12:49:09.525Z,4.10
2023-02-02T12:51:52.910Z,4.30
2023-02-02T12:54:45.762Z,4.30
2023-02-02T12:57:24.804Z,4.50
2023-02-02T13:00:11.755Z,4.50
2023-02-02T13:02:52.184Z,4.50
2023-02-02T13:08:31.140Z,4.40
2023-02-02T13:11:05.084Z,4.30
2023-02-02T13:13:38.373Z,4.30
2023-02-02T13:16:13.075Z,4.30
2023-02-02T13:18:47.924Z,4.40
2023-02-02T13:21:20.463Z,4.40
2023-02-02T13:23:51.636Z,4.30
2023-02-02T13:26:21.602Z,4.30
2023-02-02T13:28:55.020Z,4.30
2023-02-02T13:31:36.821Z,4.30
2023-02-02T13:34:13.940Z,4.30
2023-02-02T13:36:44.422Z,4.30
2023-02-02T13:39:18.792Z,4.20
2023-02-02T13:41:48.555Z,4.20
2023-02-02T13:44:22.859Z,4.20
2023-02-02T13:46:57.149Z,4.30
2023-02-02T13:49:29.991Z,7.00
2023-02-02T13:52:24.432Z,4.90
2023-02-02T13:55:22.115Z,5.10
2023-02-02T13:58:12.144Z,5.10
2023-02-02T14:00:46.043Z,5.00
2023-02-02T14:03:30.029Z,4.90
2023-02-02T14:06:14.713Z,4.80
2023-02-02T14:08:52.536Z,5.00
2023-02-02T14:11:27.523Z,5.20
2023-02-02T14:14:17.427Z,5.40
2023-02-02T14:16:56.160Z,5.50
2023-02-02T14:19:55.329Z,5.30
2023-02-02T14:22:42.596Z,5.20
2023-02-02T14:25:47.958Z,5.10
2023-02-02T14:28:42.242Z,5.00
2023-02-02T14:31:30.289Z,4.80
2023-02-02T14:34:27.843Z,5.70
2023-02-02T14:37:13.363Z,4.60
2023-02-02T14:39:54.510Z,4.50
2023-02-02T14:42:53.075Z,4.50
2023-02-02T14:45:29.925Z,4.40
2023-02-02T14:48:01.344Z,4.40
2023-02-02T14:50:42.570Z,4.30
2023-02-02T14:53:22.265Z,4.20
2023-02-02T14:55:59.198Z,4.30
2023-02-02T14:58:32.505Z,4.30
2023-02-02T15:01:08.525Z,4.20
2023-02-02T15:03:53.007Z,4.30
2023-02-02T15:06:33.878Z,4.20
2023-02-02T15:09:41.428Z,4.20
2023-02-02T15:12:38.572Z,4.20
2023-02-02T15:15:20.028Z,4.50
2023-02-02T15:18:08.672Z,4.20
2023-02-02T15:20:42.882Z,4.10
2023-02-02T15:23:24.349Z,4.10
2023-02-02T15:25:56.024Z,4.10
2023-02-02T15:28:27.447Z,4.00
2023-02-02T15:31:01.977Z,4.00
2023-02-02T15:33:32.755Z,3.90
2023-02-02T15:36:06.086Z,3.80
2023-02-02T15:38:36.980Z,3.70
2023-02-02T15:41:07.049Z,3.70
2023-02-02T15:43:36.689Z,3.60
2023-02-02T15:46:08.092Z,3.60
2023-02-02T15:48:36.462Z,3.60
2023-02-02T15:51:07.813Z,3.50
2023-02-02T15:53:48.736Z,3.50
2023-02-02T15:56:21.898Z,3.40
2023-02-02T15:58:52.765Z,3.40
2023-02-02T16:01:23.937Z,3.40
2023-02-02T16:03:55.482Z,3.40
2023-02-02T16:06:23.579Z,3.40
2023-02-02T16:08:51.710Z,3.40
2023-02-02T16:11:23.177Z,3.40
2023-02-02T16:14:01.349Z,3.30
2023-02-02T16:16:30.985Z,3.20
2023-02-02T16:19:12.928Z,3.80
2023-02-02T16:21:46.401Z,3.10
2023-02-02T16:24:20.006Z,3.10
2023-02-02T16:26:48.326Z,3.00
2023-02-02T16:29:19.365Z,3.00
2023-02-02T16:31:49.579Z,3.00
2023-02-02T16:34:19.442Z,2.90
2023-02-02T16:37:05.305Z,2.90
2023-02-02T16:39:33.245Z,3.00
2023-02-02T16:42:10.511Z,2.90
2023-02-02T16:44:42.939Z,3.90
2023-02-02T16:47:35.838Z,2.90
2023-02-02T16:50:29.066Z,2.90
2023-02-02T16:53:00.526Z,2.80
2023-02-02T16:55:47.489Z,2.80
2023-02-02T16:58:20.798Z,2.80
2023-02-02T17:01:12.410Z,2.80
2023-02-02T17:03:50.163Z,2.80
2023-02-02T17:06:18.809Z,2.70
2023-02-02T17:08:47.851Z,2.70
2023-02-02T17:11:23.864Z,2.60
2023-02-02T17:13:52.990Z,2.60
2023-02-02T17:16:24.887Z,2.60
2023-02-02T17:18:53.225Z,2.50
2023-02-02T17:21:23.968Z,2.50
2023-02-02T17:23:54.183Z,2.50
2023-02-02T17:26:22.390Z,2.50
2023-02-02T17:28:56.132Z,2.50
2023-02-02T17:31:25.799Z,2.50
2023-02-02T17:33:53.947Z,2.40
2023-02-02T17:36:21.899Z,2.40
2023-02-02T17:38:49.931Z,2.40
2023-02-02T17:41:17.859Z,2.40
2023-02-02T17:43:45.999Z,2.40
2023-02-02T17:46:14.172Z,2.30
2023-02-02T17:48:43.495Z,2.30
2023-02-02T17:51:15.945Z,2.30
2023-02-02T17:53:44.205Z,2.30
2023-02-02T17:56:12.203Z,2.30
2023-02-02T17:58:40.110Z,2.30
2023-02-02T18:01:08.493Z,2.30
2023-02-02T18:03:39.831Z,2.30
2023-02-02T18:06:11.582Z,2.30
2023-02-02T18:08:40.830Z,2.40
2023-02-02T18:11:12.151Z,2.40
2023-02-02T18:13:41.132Z,2.40
2023-02-02T18:16:09.992Z,2.40
2023-02-02T18:18:38.218Z,2.40
2023-02-02T18:21:11.520Z,2.40
2023-02-02T18:23:39.631Z,2.30
2023-02-02T18:26:12.437Z,2.30
2023-02-02T18:28:40.810Z,2.30
2023-02-02T18:31:10.278Z,2.20
2023-02-02T18:33:40.557Z,2.20
2023-02-02T18:36:15.104Z,2.20
2023-02-02T18:38:45.450Z,4.50
2023-02-02T18:41:13.485Z,2.10
2023-02-02T18:43:41.488Z,2.10
2023-02-02T18:46:13.797Z,2.10
2023-02-02T18:48:42.623Z,2.00
2023-02-02T18:51:15.915Z,2.00
2023-02-02T18:53:44.113Z,2.00
2023-02-02T18:56:13.497Z,1.90
2023-02-02T18:58:42.309Z,3.30
2023-02-02T19:01:11.353Z,3.90
2023-02-02T19:03:39.514Z,1.90
2023-02-02T19:06:26.993Z,1.90
2023-02-02T19:08:56.527Z,1.90
2023-02-02T19:11:26.680Z,1.90
2023-02-02T19:13:54.882Z,1.80
2023-02-02T19:16:26.905Z,1.90
2023-02-02T19:18:57.690Z,1.80
2023-02-02T19:21:30.182Z,1.80
2023-02-02T19:24:01.207Z,1.80
2023-02-02T19:26:30.644Z,1.80
2023-02-02T19:29:03.770Z,1.90
2023-02-02T19:31:31.768Z,2.30
2023-02-02T19:34:01.277Z,1.90
2023-02-02T19:36:30.944Z,2.00
2023-02-02T19:39:12.190Z,2.00
2023-02-02T19:41:42.557Z,2.00
2023-02-02T19:44:18.469Z,2.00
2023-02-02T19:46:49.187Z,1.90
2023-02-02T19:49:31.975Z,1.90
2023-02-02T19:52:01.264Z,1.90
2023-02-02T19:54:34.777Z,1.90
2023-02-02T19:57:17.911Z,1.90
2023-02-02T19:59:49.029Z,1.80
2023-02-02T20:02:49.726Z,1.80
2023-02-02T20:05:23.385Z,1.80
2023-02-02T20:07:56.766Z,1.80
2023-02-02T20:10:28.856Z,1.80
2023-02-02T20:12:57.354Z,1.80
2023-02-02T20:15:33.816Z,1.70
2023-02-02T20:18:04.303Z,1.60
2023-02-02T20:20:39.108Z,1.70
2023-02-02T20:23:23.766Z,1.60
2023-02-02T20:25:53.156Z,1.60
2023-02-02T20:28:41.580Z,1.60
2023-02-02T20:31:13.014Z,1.50
2023-02-02T20:33:43.850Z,1.50
2023-02-02T20:36:35.501Z,1.50
2023-02-02T20:39:23.032Z,1.40
2023-02-02T20:41:52.364Z,1.40
2023-02-02T20:44:20.328Z,1.40
2023-02-02T20:46:48.437Z,1.30
2023-02-02T20:49:16.409Z,1.30
2023-02-02T20:51:44.450Z,1.30
2023-02-02T20:54:12.498Z,1.30
2023-02-02T20:56:41.161Z,1.30
2023-02-02T20:59:10.511Z,1.20
2023-02-02T21:01:38.699Z,1.20
2023-02-02T21:04:07.288Z,1.20
2023-02-02T21:06:35.946Z,1.20
2023-02-02T21:09:04.551Z,1.20
2023-02-02T21:11:32.742Z,1.10
2023-02-02T21:14:00.968Z,1.10
2023-02-02T21:16:30.345Z,1.90
2023-02-02T21:18:58.413Z,1.10
2023-02-02T21:21:26.734Z,1.00
2023-02-02T21:23:56.282Z,1.00
2023-02-02T21:26:29.795Z,1.00
2023-02-02T21:28:58.329Z,1.00
2023-02-02T21:31:27.265Z,0.90
2023-02-02T21:33:59.105Z,0.90
2023-02-02T21:36:33.636Z,0.90
2023-02-02T21:39:19.265Z,0.90
2023-02-02T21:41:47.215Z,0.80
2023-02-02T21:44:16.640Z,0.80
2023-02-02T21:46:48.358Z,0.80
2023-02-02T21:49:26.861Z,0.80
2023-02-02T21:52:00.192Z,0.80
2023-02-02T21:54:29.529Z,0.80
2023-02-02T21:56:57.651Z,0.80
2023-02-02T21:59:30.221Z,0.80
2023-02-02T22:01:58.155Z,0.80
2023-02-02T22:04:29.482Z,0.80
2023-02-02T22:07:01.085Z,0.80
2023-02-02T22:09:38.327Z,0.80
2023-02-02T22:12:16.601Z,0.70
2023-02-02T22:14:46.569Z,0.70
2023-02-02T22:17:21.900Z,0.70
2023-02-02T22:19:52.122Z,0.70
2023-02-02T22:22:22.818Z,0.60
2023-02-02T22:24:59.030Z,0.60
2023-02-02T22:27:41.485Z,0.60
2023-02-02T22:30:21.278Z,0.50
2023-02-02T22:32:49.232Z,0.50
2023-02-02T22:35:18.933Z,0.50
2023-02-02T22:37:47.208Z,0.50
2023-02-02T22:40:16.441Z,0.50
2023-02-02T22:42:44.546Z,0.50
2023-02-02T22:45:12.699Z,0.40
2023-02-02T22:47:40.585Z,0.40
2023-02-02T22:50:09.073Z,0.40
2023-02-02T22:52:38.375Z,0.40
2023-02-02T22:55:06.971Z,0.40
2023-02-02T22:57:34.902Z,0.40
2023-02-02T23:00:03.808Z,0.40
2023-02-02T23:02:31.809Z,0.40
2023-02-02T23:04:59.797Z,0.40
2023-02-02T23:07:27.709Z,0.30
2023-02-02T23:09:56.931Z,0.30
2023-02-02T23:12:24.891Z,0.30
2023-02-02T23:14:52.939Z,0.30
2023-02-02T23:17:21.255Z,0.30
2023-02-02T23:19:49.302Z,0.30
2023-02-02T23:22:17.235Z,0.30
2023-02-02T23:24:45.238Z,0.30
2023-02-02T23:27:14.609Z,0.30
2023-02-02T23:29:42.525Z,0.20
2023-02-02T23:32:10.473Z,0.20
2023-02-02T23:34:38.369Z,0.20
2023-02-02T23:37:06.331Z,0.20
2023-02-02T23:39:43.083Z,0.20
2023-02-02T23:42:11.187Z,0.20
2023-02-02T23:44:40.675Z,1.40
2023-02-02T23:47:09.102Z,0.10
2023-02-02T23:49:37.790Z,0.10
2023-02-02T23:52:06.881Z,0.20
2023-02-02T23:54:35.085Z,0.10
2023-02-02T23:57:03.393Z,0.10
2023-02-02T23:59:31.510Z,0.10
